• Join FlightAware (Why Join?)
  • Login
  • US Flag 
03:12AM EDT


 

Airport Tracker/Info


-or-


 

Live Flight TrackerFlight Track Log ✈ N509QS ✈ 15-Jul-2013 ✈ KDFW - KSAT

Flight Track Log - Related Links

Times and Time Zones

All times are in EDT time to prevent confusion due to time zone crossing. See the N509QS flight status page for this flight to view local times or setup timezone preferences in your user account.

Time Position Orientation Groundspeed Altitude Reporting Facility
EDT Latitude Longitude Course Direction KTS MPH feet Rate Location/Type
12:37PM 32.9000 -97.0500 180° South 164 189 1,000  Level Dallas / Fort Worth TRACON
12:38PM 32.8500 -97.0500 180° South 196 226 4,500 4,320 Climbing Dallas / Fort Worth TRACON
12:39PM 32.7472 -97.0553 182° South 242 278 10,700 3,120 Climbing Fort Worth Center
12:40PM 32.6658 -97.0556 180° South 302 348 12,500 2,520 Climbing Fort Worth Center
12:41PM 32.5531 -97.0561 180° South 360 414 15,800 2,700 Climbing Fort Worth Center
12:42PM 32.4508 -97.0589 181° South 399 459 17,900 2,700 Climbing Fort Worth Center
12:43PM 32.3214 -97.0594 180° South 419 482 21,200 2,520 Climbing Fort Worth Center
12:44PM 32.2003 -97.0647 182° South 435 501 23,000 1,380 Climbing Fort Worth Center
12:45PM 32.0750 -97.0678 181° South 442 509 24,000 480 Climbing Fort Worth Center
12:46PM 31.9792 -97.0706 181° South 442 509 24,000  Level Fort Worth Center
12:47PM 31.8475 -97.0758 182° South 431 496 24,000  Level Fort Worth Center
12:48PM 31.7447 -97.0775 181° South 443 510 24,000  Level Houston Center
12:49PM 31.6197 -97.0803 181° South 445 512 24,000  Level Houston Center
12:50PM 31.4942 -97.0942 185° South 447 514 24,000  Level Houston Center
12:51PM 31.3742 -97.1442 200° South 452 520 24,000  Level Houston Center
12:52PM 31.2556 -97.1906 198° South 447 514 24,000  Level Houston Center
12:53PM 31.1394 -97.2367 199° South 438 504 24,000  Level Houston Center
12:54PM 31.0231 -97.2831 199° South 439 505 24,000  Level Houston Center
12:55PM 30.8844 -97.3364 198° South 466 536 24,000  Level Houston Center
12:56PM 30.7686 -97.3800 198° South 442 509 24,000  Level Houston Center
12:57PM 30.6506 -97.4253 198° South 441 507 24,000  Level Houston Center
12:58PM 30.5319 -97.4725 199° South 446 513 24,000 -600 Level Houston Center
12:59PM 30.4028 -97.5214 198° South 405 466 22,800 -1,500 Descending Houston Center
01:00PM 30.3108 -97.5767 207° Southwest 368 423 21,000 -1,740 Descending Houston Center
01:02PM 30.2253 -97.6375 212° Southwest 360 414 19,300 -1,620 Descending Houston Center
01:03PM 30.1428 -97.6933 210° Southwest 341 392 17,700 -1,680 Descending Houston Center
01:03PM 30.0761 -97.7400 211° Southwest 346 398 16,300 -1,740 Descending Houston Center
01:04PM 29.9972 -97.7936 210° Southwest 332 382 14,700 -1,560 Descending Houston Center
01:05PM 29.9206 -97.8469 211° Southwest 318 366 13,200 -1,320 Descending Houston Center
01:06PM 29.8661 -97.9381 235° Southwest 349 402 12,100 -1,140 Descending Houston Center
01:07PM 29.8247 -98.0325 243° Southwest 321 369 11,000 -1,440 Descending Houston Center
01:08PM 29.7906 -98.1139 244° Southwest 277 319 9,200 -1,740 Descending Houston Center
01:09PM 29.7692 -98.2008 254° West 279 321 7,500 -1,620 Descending Houston Center
01:10PM 29.7561 -98.2867 260° West 275 316 6,000 -780 Descending Houston Center
01:11PM 29.7414 -98.3750 259° West 262 302 6,000 -300 Level Houston Center
01:12PM 29.7297 -98.4533 260° West 242 278 5,400 -900 Descending Houston Center
01:13PM 29.7194 -98.5244 261° West 225 259 4,200 -1,020 Descending Houston Center
01:14PM 29.7014 -98.5794 249° West 164 189 3,400 -600 Descending Houston Center
01:15PM 29.6642 -98.6103 216° Southwest 159 183 3,000 -240 Descending Houston Center
01:16PM 29.6247 -98.5911 157° South 154 177 3,000 -180 Level Houston Center
01:17PM 29.6111 -98.5728 130° Southeast 156 180 2,800 -720 Descending Houston Center
01:18PM 29.5961 -98.5536 132° Southeast 157 181 2,300 -780 Descending Houston Center
01:18PM 29.5814 -98.5344 131° Southeast 151 174 2,000 -720 Descending Houston Center
01:19PM 29.5722 -98.5228 132° Southeast 126 145 1,600 -600 Descending Houston Center
01:19PM 29.5606 -98.5075 131° Southeast 120 138 1,400 -720 Descending Houston Center
01:20PM 29.5483 -98.4919 132° Southeast 119 137 900 -600 Descending Houston Center
01:20PM 29.5403 -98.4806 129° Southeast 121 139 800 -240 Descending Houston Center
01:22PM 29.5340 -98.4691 172° South  Level Estimated
01:29PM 29.5333 -98.4667 12° North  Level FlightAware Approximate